Jaipur, India

4:40 AM IST on October 26, 2014 (GMT +0530)
Jaipur | Change Station
CLOSE
Current Station
Airport
Location: Jaipur,
Elevation: 1280 ft
Nearby Weather Stations

Elev 1280 ft 26.82 °N, 75.81 °E | Updated 3 hours ago

Smoke
Smoke
72 °F
Feels Like 72 °F
N
10
Wind Variable Wind from ENE

Today
High -- | Low -- °F
--% Chance of Precip.
Yesterday
High -- | Low -- °F
Precip. -- in
6:32 AM 5:48 PM
Waxing Crescent, 5% visible
Pressure 29.98 in
Visibility 1.2 miles
Clouds Scattered Clouds 3500 ft
Scattered Clouds 10000 ft
Dew Point 57 °F
Humidity 60%
Rainfall 0.00 in
Snow Depth Not available.
UV 0 out of 12
Pollen Not available.
Air Quality Not available.
Flu Activity Not available.
METAR VIJP 251930Z 07009KT 2000 FU SCT035 SCT100 22/14 Q1015 NOSIG

More Conditions Fewer Conditions

Pressure 29.98 in
Visibility 1.2 miles
Clouds Scattered Clouds 3500 ft
Scattered Clouds 10000 ft
Dew Point 57 °F
Humidity 60%
Rainfall 0.00 in
Snow Depth Not available.
UV 0 out of 12
Pollen Not available.
Air Quality Not available.
Flu Activity Not available.
METAR VIJP 251930Z 07009KT 2000 FU SCT035 SCT100 22/14 Q1015 NOSIG

More Conditions Fewer Conditions

10-Day Weather Forecast

Almanac

Astronomy

Oct. 26, 2014 Rise Set
Actual Time 6:32 AM IST 5:48 PM IST
Civil Twilight 6:08 AM IST 6:12 PM IST
Nautical Twilight 5:41 AM IST 6:39 PM IST
Astronomical Twilight 5:14 AM IST 7:06 PM IST
Moon 8:35 AM IST (10/26) 7:46 PM IST (10/26)
Length of Visible Light 12h 03m
Length of Day
11h 16m
Tomorrow will be 1m 26s shorter.
Waxing Crescent, 5% of the Moon is Illuminated
Oct 25
Waxing Crescent
Oct 30
First Quarter
Nov 6
Full
Nov 14
Last Quarter
Nov 22
New

Yesterday's Extremes

Country Highs Country Lows

Community

WunderPhotos

Upload Photos

1,765,024 photos uploaded!

Nearby

Snow Depth

Not available.

Earthquake Activity

City Distance Mag. Time & Date
No recent earthquake activity has been reported nearby.
Minimum magnitude displayed is 2.5.

Coastal Water Temperatures

Place Temperature
No Stations Reporting

Nearby Weather Stations